createdAt,value
2018-04-26T00:02:11.470Z,52.72
2018-04-26T00:04:37.274Z,52.74
2018-04-26T00:07:03.077Z,51.98
2018-04-26T00:09:28.882Z,52.51
2018-04-26T00:11:54.691Z,52.45
2018-04-26T00:14:20.621Z,52.20
2018-04-26T00:16:46.429Z,52.21
2018-04-26T00:19:12.236Z,52.50
2018-04-26T00:21:38.036Z,52.07
2018-04-26T00:24:03.843Z,52.02
2018-04-26T00:26:29.658Z,52.39
2018-04-26T00:28:55.460Z,52.23
2018-04-26T00:31:21.268Z,52.33
2018-04-26T00:33:47.073Z,52.20
2018-04-26T00:36:12.882Z,52.87
2018-04-26T00:38:38.688Z,52.42
2018-04-26T00:41:04.493Z,52.13
2018-04-26T00:43:30.303Z,52.44
2018-04-26T00:45:56.230Z,52.29
2018-04-26T00:48:22.033Z,52.42
2018-04-26T00:50:47.970Z,52.70
2018-04-26T00:53:13.777Z,52.57
2018-04-26T00:55:39.591Z,52.45
2018-04-26T00:58:05.440Z,52.31
2018-04-26T01:00:31.243Z,52.65
2018-04-26T01:02:57.051Z,52.50
2018-04-26T01:05:22.890Z,52.99
2018-04-26T01:07:48.732Z,53.01
2018-04-26T01:10:14.636Z,52.41
2018-04-26T01:12:40.449Z,52.37
2018-04-26T01:15:06.252Z,52.82
2018-04-26T01:17:32.097Z,52.88
2018-04-26T01:19:57.907Z,52.62
2018-04-26T01:22:23.734Z,53.17
2018-04-26T01:24:49.543Z,52.45
2018-04-26T01:27:15.384Z,52.62
2018-04-26T01:29:41.290Z,52.67
2018-04-26T01:32:07.091Z,52.10
2018-04-26T01:34:32.890Z,52.53
2018-04-26T01:37:04.996Z,52.25
2018-04-26T01:39:30.800Z,51.67
2018-04-26T01:41:56.636Z,52.34
2018-04-26T01:44:22.442Z,52.21
2018-04-26T01:46:48.902Z,52.45
2018-04-26T01:49:14.704Z,52.45
2018-04-26T01:51:40.545Z,51.80
2018-04-26T01:54:06.456Z,52.42
2018-04-26T01:56:32.262Z,52.29
2018-04-26T01:58:58.073Z,52.44
2018-04-26T02:01:24.401Z,52.31
2018-04-26T02:03:50.208Z,52.15
2018-04-26T02:06:16.064Z,51.98
2018-04-26T02:08:41.873Z,52.36
2018-04-26T02:11:07.708Z,52.25
2018-04-26T02:13:33.513Z,51.83
2018-04-26T02:15:59.357Z,52.07
2018-04-26T02:18:25.163Z,51.39
2018-04-26T02:20:50.969Z,51.88
2018-04-26T02:23:16.794Z,51.96
2018-04-26T02:25:42.694Z,51.62
2018-04-26T02:28:08.585Z,51.93
2018-04-26T02:30:34.394Z,51.79
2018-04-26T02:33:00.226Z,50.90
2018-04-26T02:35:26.031Z,51.50
2018-04-26T02:37:51.864Z,51.42
2018-04-26T02:40:17.685Z,51.56
2018-04-26T02:42:43.515Z,51.32
2018-04-26T02:45:10.348Z,51.81
2018-04-26T02:47:36.182Z,51.61
2018-04-26T02:50:02.022Z,51.67
2018-04-26T02:52:27.824Z,51.46
2018-04-26T02:54:53.657Z,51.71
2018-04-26T02:57:19.461Z,51.60
2018-04-26T02:59:45.261Z,51.82
2018-04-26T03:02:11.068Z,51.41
2018-04-26T03:04:36.873Z,51.41
2018-04-26T03:07:02.753Z,51.40
2018-04-26T03:09:28.569Z,51.25
2018-04-26T03:11:54.518Z,51.42
2018-04-26T03:14:20.361Z,51.25
2018-04-26T03:16:46.190Z,51.34
2018-04-26T03:19:12.125Z,51.33
2018-04-26T03:21:37.953Z,51.53
2018-04-26T03:24:03.761Z,51.40
2018-04-26T03:26:29.755Z,51.38
2018-04-26T03:28:55.617Z,51.29
2018-04-26T03:31:21.435Z,51.06
2018-04-26T03:33:47.287Z,51.51
2018-04-26T03:36:13.142Z,51.21
2018-04-26T03:38:38.951Z,51.36
2018-04-26T03:41:04.781Z,51.51
2018-04-26T03:43:30.590Z,51.13
2018-04-26T03:45:56.430Z,51.34
2018-04-26T03:48:22.236Z,51.36
2018-04-26T03:50:48.041Z,51.25
2018-04-26T03:53:13.849Z,51.24
2018-04-26T03:55:39.649Z,51.31
2018-04-26T03:58:05.525Z,51.38
2018-04-26T04:00:37.398Z,51.35
2018-04-26T04:03:09.545Z,51.55
2018-04-26T04:05:41.374Z,51.38
2018-04-26T04:08:07.176Z,51.46
2018-04-26T04:10:33.049Z,51.35
2018-04-26T04:12:58.861Z,51.39
2018-04-26T04:15:24.665Z,51.22
2018-04-26T04:17:50.611Z,51.36
2018-04-26T04:20:16.414Z,51.34
2018-04-26T04:22:42.221Z,51.28
2018-04-26T04:25:08.025Z,51.56
2018-04-26T04:27:33.825Z,51.63
2018-04-26T04:29:59.834Z,51.41
2018-04-26T04:32:25.638Z,51.29
2018-04-26T04:34:51.443Z,51.24
2018-04-26T04:37:17.245Z,51.17
2018-04-26T04:39:43.057Z,51.19
2018-04-26T04:42:08.861Z,51.29
2018-04-26T04:44:34.690Z,51.04
2018-04-26T04:47:00.660Z,51.17
2018-04-26T04:49:26.547Z,51.21
2018-04-26T04:51:52.352Z,51.21
2018-04-26T04:54:18.154Z,51.32
2018-04-26T04:56:43.965Z,51.33
2018-04-26T04:59:09.769Z,50.94
2018-04-26T05:01:35.576Z,50.92
2018-04-26T05:04:01.500Z,50.82
2018-04-26T05:06:27.308Z,50.78
2018-04-26T05:08:53.150Z,50.70
2018-04-26T05:11:19.021Z,50.66
2018-04-26T05:13:44.947Z,50.60
2018-04-26T05:16:10.898Z,51.02
2018-04-26T05:18:36.928Z,51.19
2018-04-26T05:21:04.188Z,51.28
2018-04-26T05:23:30.723Z,51.60
2018-04-26T05:25:59.000Z,51.42
2018-04-26T05:28:24.859Z,51.89
2018-04-26T05:30:50.841Z,51.98
2018-04-26T05:33:16.646Z,51.80
2018-04-26T05:35:42.457Z,51.20
2018-04-26T05:38:08.260Z,51.45
2018-04-26T05:40:34.108Z,50.82
2018-04-26T05:42:59.915Z,50.86
2018-04-26T05:45:25.712Z,50.75
2018-04-26T05:47:51.558Z,51.27
2018-04-26T05:50:17.377Z,51.07
2018-04-26T05:52:43.185Z,51.16
2018-04-26T05:55:09.149Z,51.17
2018-04-26T05:57:35.097Z,50.83
2018-04-26T06:00:00.909Z,50.91
2018-04-26T06:02:26.739Z,50.55
2018-04-26T06:04:52.572Z,50.59
2018-04-26T06:07:18.430Z,50.56
2018-04-26T06:09:44.234Z,50.57
2018-04-26T06:12:10.152Z,50.32
2018-04-26T06:14:35.968Z,50.72
2018-04-26T06:17:02.021Z,50.71
2018-04-26T06:19:41.122Z,51.20
2018-04-26T06:22:06.986Z,50.68
2018-04-26T06:24:32.793Z,50.86
2018-04-26T06:26:58.607Z,50.90
2018-04-26T06:29:24.421Z,51.10
2018-04-26T06:31:50.234Z,50.76
2018-04-26T06:34:16.045Z,50.87
2018-04-26T06:36:41.856Z,50.63
2018-04-26T06:39:07.711Z,51.03
2018-04-26T06:41:33.516Z,50.76
2018-04-26T06:43:59.320Z,51.11
2018-04-26T06:46:25.240Z,50.63
2018-04-26T06:48:51.049Z,51.37
2018-04-26T06:51:17.732Z,51.38
2018-04-26T06:53:43.541Z,51.55
2018-04-26T06:56:09.346Z,51.49
2018-04-26T06:58:35.177Z,51.16
2018-04-26T07:01:01.026Z,51.73
2018-04-26T07:03:26.852Z,51.12
2018-04-26T07:05:52.695Z,51.03
2018-04-26T07:08:18.513Z,51.08
2018-04-26T07:10:45.246Z,51.42
2018-04-26T07:13:11.056Z,51.31
2018-04-26T07:15:36.860Z,51.61
2018-04-26T07:18:02.694Z,50.40
2018-04-26T07:20:28.525Z,51.84
2018-04-26T07:22:54.337Z,50.82
2018-04-26T07:25:20.174Z,51.60
2018-04-26T07:27:46.497Z,50.83
2018-04-26T07:30:12.461Z,51.18
2018-04-26T07:32:38.309Z,51.43
2018-04-26T07:35:04.146Z,52.03
2018-04-26T07:37:29.965Z,51.73
2018-04-26T07:39:55.840Z,52.20
2018-04-26T07:42:21.662Z,51.92
2018-04-26T07:44:47.639Z,51.77
2018-04-26T07:47:13.432Z,52.31
2018-04-26T07:49:39.246Z,51.91
2018-04-26T07:52:05.054Z,52.07
2018-04-26T07:54:30.866Z,51.90
2018-04-26T07:56:56.676Z,52.07
2018-04-26T07:59:22.488Z,52.31
2018-04-26T08:01:49.084Z,52.44
2018-04-26T08:04:14.824Z,52.43
2018-04-26T08:06:40.628Z,52.36
2018-04-26T08:09:06.432Z,52.46
2018-04-26T08:11:32.356Z,52.38
2018-04-26T08:13:58.186Z,52.24
2018-04-26T08:16:23.993Z,52.75
2018-04-26T08:18:49.808Z,52.73
2018-04-26T08:21:15.613Z,52.70
2018-04-26T08:23:41.421Z,52.70
2018-04-26T08:26:07.237Z,52.61
2018-04-26T08:28:33.071Z,52.81
2018-04-26T08:31:10.913Z,52.53
2018-04-26T08:33:50.811Z,52.63
2018-04-26T08:36:16.700Z,52.84
2018-04-26T08:38:42.589Z,52.57
2018-04-26T08:41:08.401Z,52.61
2018-04-26T08:43:34.218Z,52.52
2018-04-26T08:46:00.070Z,52.37
2018-04-26T08:48:25.890Z,52.68
2018-04-26T08:50:51.791Z,52.75
2018-04-26T08:53:17.601Z,52.61
2018-04-26T08:55:43.423Z,52.77
2018-04-26T08:58:09.234Z,52.80
2018-04-26T09:00:35.041Z,52.87
2018-04-26T09:03:00.873Z,52.95
2018-04-26T09:05:26.686Z,52.85
2018-04-26T09:07:52.500Z,52.55
2018-04-26T09:10:18.317Z,52.87
2018-04-26T09:12:44.133Z,52.96
2018-04-26T09:15:09.953Z,52.86
2018-04-26T09:17:35.783Z,52.65
2018-04-26T09:20:01.652Z,52.89
2018-04-26T09:22:27.474Z,52.75
2018-04-26T09:24:53.360Z,52.69
2018-04-26T09:27:19.128Z,52.81
2018-04-26T09:29:44.942Z,52.87
2018-04-26T09:32:10.786Z,52.94
2018-04-26T09:34:36.633Z,53.19
2018-04-26T09:37:02.470Z,53.14
2018-04-26T09:39:28.329Z,52.42
2018-04-26T09:41:54.275Z,52.98
2018-04-26T09:44:20.129Z,52.46
2018-04-26T09:46:45.939Z,52.43
2018-04-26T09:49:11.745Z,52.87
2018-04-26T09:51:37.556Z,52.67
2018-04-26T09:54:03.365Z,52.55
2018-04-26T09:56:29.176Z,53.00
2018-04-26T09:58:54.985Z,52.82
2018-04-26T10:01:26.913Z,52.85
2018-04-26T10:03:53.708Z,52.53
2018-04-26T10:06:26.538Z,52.76
2018-04-26T10:08:52.412Z,52.97
2018-04-26T10:11:18.273Z,52.86
2018-04-26T10:13:44.087Z,52.87
2018-04-26T10:16:09.925Z,52.56
2018-04-26T10:18:35.732Z,52.46
2018-04-26T10:21:01.628Z,52.78
2018-04-26T10:23:27.540Z,52.41
2018-04-26T10:25:53.348Z,52.11
2018-04-26T10:28:19.179Z,52.63
2018-04-26T10:30:45.017Z,52.54
2018-04-26T10:33:10.862Z,52.22
2018-04-26T10:35:36.783Z,52.57
2018-04-26T10:38:02.607Z,52.55
2018-04-26T10:40:28.416Z,52.89
2018-04-26T10:42:54.305Z,52.28
2018-04-26T10:45:20.147Z,52.65
2018-04-26T10:47:45.961Z,52.53
2018-04-26T10:50:11.801Z,53.05
2018-04-26T10:52:37.619Z,52.70
2018-04-26T10:55:03.478Z,52.97
2018-04-26T10:57:29.317Z,53.10
2018-04-26T10:59:55.254Z,53.30
2018-04-26T11:02:21.081Z,52.90
2018-04-26T11:04:46.888Z,52.69
2018-04-26T11:07:12.724Z,53.23
2018-04-26T11:09:38.541Z,53.25
2018-04-26T11:12:04.375Z,53.30
2018-04-26T11:14:30.189Z,53.23
2018-04-26T11:16:56.044Z,52.99
2018-04-26T11:19:21.909Z,53.00
2018-04-26T11:21:47.719Z,52.51
2018-04-26T11:24:13.525Z,52.95
2018-04-26T11:26:39.341Z,53.04
2018-04-26T11:29:05.161Z,52.96
2018-04-26T11:31:30.969Z,53.07
2018-04-26T11:33:56.781Z,53.13
2018-04-26T11:36:22.593Z,53.23
2018-04-26T11:38:48.412Z,52.75
2018-04-26T11:41:14.224Z,52.59
2018-04-26T11:43:40.042Z,52.86
2018-04-26T11:46:05.860Z,53.29
2018-04-26T11:48:31.697Z,53.44
2018-04-26T11:50:57.505Z,53.56
2018-04-26T11:53:23.319Z,53.38
2018-04-26T11:55:49.130Z,53.58
2018-04-26T11:58:14.940Z,53.29
2018-04-26T12:00:40.783Z,53.43
2018-04-26T12:03:06.678Z,53.46
2018-04-26T12:05:32.486Z,53.59
2018-04-26T12:07:58.292Z,53.71
2018-04-26T12:10:24.109Z,53.46
2018-04-26T12:12:49.957Z,53.59
2018-04-26T12:15:15.765Z,53.62
2018-04-26T12:17:41.603Z,53.27
2018-04-26T12:20:07.448Z,53.52
2018-04-26T12:22:33.261Z,53.69
2018-04-26T12:24:59.074Z,53.91
2018-04-26T12:27:25.012Z,53.62
2018-04-26T12:29:50.828Z,53.27
2018-04-26T12:32:16.636Z,53.45
2018-04-26T12:34:42.541Z,53.81
2018-04-26T12:37:08.357Z,53.38
2018-04-26T12:39:34.199Z,53.58
2018-04-26T12:42:00.141Z,53.52
2018-04-26T12:44:25.954Z,53.60
2018-04-26T12:46:51.773Z,53.28
2018-04-26T12:49:17.586Z,53.72
2018-04-26T12:51:43.404Z,53.72
2018-04-26T12:54:09.217Z,53.57
2018-04-26T12:56:35.036Z,53.44
2018-04-26T12:59:00.853Z,53.48
2018-04-26T13:01:26.671Z,53.27
2018-04-26T13:03:52.485Z,53.34
2018-04-26T13:06:18.301Z,53.48
2018-04-26T13:08:44.112Z,53.51
2018-04-26T13:11:09.961Z,53.61
2018-04-26T13:13:35.781Z,52.84
2018-04-26T13:16:01.598Z,53.63
2018-04-26T13:18:27.416Z,53.19
2018-04-26T13:20:53.234Z,53.29
2018-04-26T13:23:19.105Z,53.58
2018-04-26T13:25:44.941Z,53.45
2018-04-26T13:28:10.784Z,53.42
2018-04-26T13:30:36.621Z,53.25
2018-04-26T13:33:02.457Z,53.50
2018-04-26T13:35:28.329Z,53.30
2018-04-26T13:37:54.137Z,53.27
2018-04-26T13:40:20.002Z,53.55
2018-04-26T13:42:45.817Z,53.25
2018-04-26T13:45:11.661Z,53.41
2018-04-26T13:47:37.509Z,53.16
2018-04-26T13:50:03.325Z,53.57
2018-04-26T13:52:29.230Z,53.24
2018-04-26T13:54:55.041Z,53.62
2018-04-26T13:57:20.885Z,53.19
2018-04-26T13:59:46.696Z,53.53
2018-04-26T14:02:12.552Z,53.34
2018-04-26T14:04:38.358Z,52.96
2018-04-26T14:07:04.242Z,53.29
2018-04-26T14:09:30.056Z,53.56
2018-04-26T14:11:55.902Z,53.29
2018-04-26T14:14:21.713Z,53.66
2018-04-26T14:16:47.561Z,53.35
2018-04-26T14:19:13.373Z,53.63
2018-04-26T14:21:39.216Z,53.65
2018-04-26T14:24:05.083Z,53.43
2018-04-26T14:26:30.926Z,52.94
2018-04-26T14:28:56.797Z,53.15
2018-04-26T14:31:22.612Z,53.31
2018-04-26T14:33:48.432Z,53.73
2018-04-26T14:36:14.245Z,53.55
2018-04-26T14:38:40.057Z,53.55
2018-04-26T14:41:05.872Z,53.45
2018-04-26T14:43:31.739Z,53.43
2018-04-26T14:45:57.553Z,53.61
2018-04-26T14:48:23.377Z,52.58
2018-04-26T14:50:49.218Z,53.19
2018-04-26T14:53:15.029Z,53.33
2018-04-26T14:55:40.882Z,53.61
2018-04-26T14:58:06.694Z,53.47
2018-04-26T15:00:32.537Z,53.65
2018-04-26T15:02:58.349Z,53.41
2018-04-26T15:05:24.245Z,53.19
2018-04-26T15:07:50.153Z,53.35
2018-04-26T15:10:15.993Z,53.38
2018-04-26T15:12:41.805Z,53.16
2018-04-26T15:15:07.646Z,53.23
2018-04-26T15:17:33.946Z,53.33
2018-04-26T15:19:59.754Z,53.29
2018-04-26T15:22:25.574Z,52.63
2018-04-26T15:24:51.381Z,53.16
2018-04-26T15:27:17.216Z,53.35
2018-04-26T15:29:43.021Z,53.70
2018-04-26T15:32:08.840Z,53.73
2018-04-26T15:34:34.663Z,53.22
2018-04-26T15:37:00.483Z,53.59
2018-04-26T15:39:26.298Z,53.41
2018-04-26T15:41:52.114Z,53.32
2018-04-26T15:44:17.937Z,53.45
2018-04-26T15:46:44.826Z,53.53
2018-04-26T15:49:10.654Z,53.41
2018-04-26T15:51:36.536Z,53.16
2018-04-26T15:54:08.474Z,53.07
2018-04-26T15:56:53.441Z,52.93
2018-04-26T15:59:25.550Z,53.66
2018-04-26T16:05:19.067Z,53.75
2018-04-26T16:07:57.344Z,53.84
2018-04-26T16:10:29.478Z,53.49
2018-04-26T16:13:07.723Z,53.17
2018-04-26T16:18:30.486Z,53.49
2018-04-26T16:21:08.672Z,53.19
2018-04-26T16:23:46.898Z,53.08
2018-04-26T16:26:18.826Z,52.95
2018-04-26T16:28:57.308Z,52.90
2018-04-26T16:31:35.452Z,52.87
2018-04-26T16:34:07.492Z,53.09
2018-04-26T16:36:39.548Z,52.84
2018-04-26T16:39:11.450Z,52.70
2018-04-26T16:41:38.180Z,52.46
2018-04-26T16:44:03.981Z,52.66
2018-04-26T16:46:29.827Z,52.05
2018-04-26T16:48:55.641Z,52.65
2018-04-26T16:51:21.597Z,52.54
2018-04-26T16:53:47.402Z,52.66
2018-04-26T16:56:13.205Z,52.35
2018-04-26T16:58:39.013Z,52.55
2018-04-26T17:03:53.461Z,52.46
2018-04-26T17:06:19.275Z,52.57
2018-04-26T17:08:45.090Z,52.67
2018-04-26T17:11:10.899Z,52.56
2018-04-26T17:13:38.270Z,51.19
2018-04-26T17:16:04.189Z,51.66
2018-04-26T17:18:29.997Z,51.18
2018-04-26T17:20:55.884Z,50.92
2018-04-26T17:23:21.653Z,51.04
2018-04-26T17:25:47.466Z,51.79
2018-04-26T17:28:13.347Z,51.29
2018-04-26T17:30:39.112Z,51.00
2018-04-26T17:33:04.928Z,51.25
2018-04-26T17:35:30.729Z,51.16
2018-04-26T17:37:56.568Z,51.47
2018-04-26T17:40:22.376Z,51.44
2018-04-26T17:42:48.190Z,51.30
2018-04-26T17:45:13.992Z,51.20
2018-04-26T17:47:39.801Z,51.05
2018-04-26T17:50:05.622Z,51.62
2018-04-26T17:52:31.440Z,51.38
2018-04-26T17:54:57.240Z,51.60
2018-04-26T17:57:23.052Z,50.81
2018-04-26T17:59:48.861Z,51.30
2018-04-26T18:02:14.683Z,51.25
2018-04-26T18:04:40.499Z,50.98
2018-04-26T18:07:06.414Z,51.34
2018-04-26T18:09:32.276Z,51.16
2018-04-26T18:11:58.153Z,51.17
2018-04-26T18:14:23.961Z,51.48
2018-04-26T18:16:49.857Z,51.20
2018-04-26T18:19:15.635Z,51.60
2018-04-26T18:21:41.437Z,51.82
2018-04-26T18:24:07.277Z,51.42
2018-04-26T18:26:34.044Z,51.27
2018-04-26T18:28:59.981Z,51.26
2018-04-26T18:31:25.816Z,50.93
2018-04-26T18:33:51.629Z,51.35
2018-04-26T18:36:17.543Z,51.34
2018-04-26T18:38:43.355Z,51.08
2018-04-26T18:41:09.209Z,51.67
2018-04-26T18:43:35.136Z,51.11
2018-04-26T18:46:01.059Z,51.33
2018-04-26T18:48:26.864Z,51.15
2018-04-26T18:50:52.817Z,51.78
2018-04-26T18:53:18.755Z,51.19
2018-04-26T18:55:44.581Z,51.64
2018-04-26T18:58:11.182Z,51.28
2018-04-26T19:00:37.002Z,51.35
2018-04-26T19:03:04.010Z,51.28
2018-04-26T19:05:29.993Z,51.59
2018-04-26T19:07:56.100Z,51.83
2018-04-26T19:10:22.118Z,51.46
2018-04-26T19:12:47.979Z,51.63
2018-04-26T19:15:13.865Z,51.34
2018-04-26T19:17:39.789Z,51.56
2018-04-26T19:20:05.998Z,51.54
2018-04-26T19:22:31.945Z,51.45
2018-04-26T19:25:00.577Z,51.53
2018-04-26T19:27:26.639Z,51.27
2018-04-26T19:29:53.136Z,51.69
2018-04-26T19:32:18.985Z,51.91
2018-04-26T19:34:44.796Z,51.79
2018-04-26T19:37:10.750Z,51.62
2018-04-26T19:39:45.712Z,51.75
2018-04-26T19:42:15.203Z,51.57
2018-04-26T19:44:44.554Z,51.53
2018-04-26T19:47:13.304Z,51.61
2018-04-26T19:49:41.992Z,51.77
2018-04-26T19:52:15.555Z,51.66
2018-04-26T19:54:42.522Z,51.56
2018-04-26T19:57:09.759Z,51.13
2018-04-26T19:59:40.410Z,51.59
2018-04-26T20:02:14.432Z,51.40
2018-04-26T20:04:48.489Z,51.65
2018-04-26T20:07:33.484Z,51.87
2018-04-26T20:10:04.987Z,51.57
2018-04-26T20:12:43.906Z,51.29
2018-04-26T20:15:25.739Z,51.44
2018-04-26T20:18:06.677Z,51.78
2018-04-26T20:20:33.303Z,51.61
2018-04-26T20:23:06.625Z,51.40
2018-04-26T20:25:32.497Z,51.44
2018-04-26T20:27:58.601Z,51.29
2018-04-26T20:30:24.946Z,51.50
2018-04-26T20:32:50.923Z,51.39
2018-04-26T20:35:18.643Z,50.99
2018-04-26T20:37:45.393Z,50.54
2018-04-26T20:40:17.792Z,50.93
2018-04-26T20:42:45.502Z,50.88
2018-04-26T20:45:16.101Z,50.71
2018-04-26T20:47:47.253Z,51.36
2018-04-26T20:50:18.376Z,51.40
2018-04-26T20:55:26.698Z,51.37
2018-04-26T20:57:57.854Z,51.24
2018-04-26T21:03:21.819Z,51.38
2018-04-26T21:05:51.503Z,51.26
2018-04-26T21:08:22.294Z,50.93
2018-04-26T21:11:06.244Z,51.06
2018-04-26T21:13:36.253Z,50.78
2018-04-26T21:16:06.801Z,50.97
2018-04-26T21:18:40.057Z,50.88
2018-04-26T21:21:07.608Z,50.54
2018-04-26T21:23:35.996Z,50.74
2018-04-26T21:26:01.936Z,50.81
2018-04-26T21:28:27.745Z,51.09
2018-04-26T21:30:53.633Z,50.37
2018-04-26T21:33:19.438Z,50.73
2018-04-26T21:35:45.313Z,50.85
2018-04-26T21:38:11.092Z,50.63
2018-04-26T21:40:36.914Z,50.75
2018-04-26T21:43:02.741Z,50.95
2018-04-26T21:45:28.628Z,51.10
2018-04-26T21:47:54.444Z,50.98
2018-04-26T21:50:26.444Z,51.24
2018-04-26T21:52:58.456Z,51.01
2018-04-26T21:55:30.296Z,51.02
2018-04-26T21:58:02.226Z,50.89
2018-04-26T22:00:34.206Z,51.14
2018-04-26T22:02:59.949Z,50.94
2018-04-26T22:05:25.773Z,50.35
2018-04-26T22:07:51.681Z,50.94
2018-04-26T22:10:17.508Z,50.80
2018-04-26T22:12:43.315Z,50.43
2018-04-26T22:15:09.126Z,50.99
2018-04-26T22:17:34.937Z,50.89
2018-04-26T22:20:00.741Z,50.59
2018-04-26T22:22:26.600Z,50.83
2018-04-26T22:24:52.401Z,50.95
2018-04-26T22:27:18.209Z,50.85
2018-04-26T22:29:44.133Z,50.48
2018-04-26T22:32:09.939Z,50.75
2018-04-26T22:34:35.756Z,50.62
2018-04-26T22:37:01.589Z,50.64
2018-04-26T22:39:27.392Z,50.60
2018-04-26T22:41:53.201Z,50.60
2018-04-26T22:44:19.041Z,50.75
2018-04-26T22:46:44.841Z,50.57
2018-04-26T22:49:10.672Z,50.36
2018-04-26T22:51:36.483Z,50.68
2018-04-26T22:54:02.290Z,50.59
2018-04-26T22:56:28.100Z,50.27
2018-04-26T22:58:53.904Z,50.63
2018-04-26T23:01:19.701Z,50.74
2018-04-26T23:03:45.541Z,50.91
2018-04-26T23:06:11.351Z,51.49
2018-04-26T23:08:37.208Z,50.49
2018-04-26T23:11:03.022Z,50.52
2018-04-26T23:13:28.832Z,50.47
2018-04-26T23:15:54.745Z,51.05
2018-04-26T23:18:20.552Z,50.64
2018-04-26T23:20:46.417Z,51.25
2018-04-26T23:23:12.253Z,50.50
2018-04-26T23:25:38.054Z,51.42
2018-04-26T23:28:03.856Z,50.48
2018-04-26T23:30:29.666Z,50.70
2018-04-26T23:32:55.578Z,51.02
2018-04-26T23:35:21.389Z,50.74
2018-04-26T23:37:47.189Z,50.96
2018-04-26T23:40:12.992Z,50.55
2018-04-26T23:42:38.796Z,50.71
2018-04-26T23:45:04.612Z,50.63
2018-04-26T23:47:30.412Z,50.33
2018-04-26T23:49:56.253Z,50.68
2018-04-26T23:52:22.169Z,50.47
2018-04-26T23:54:47.965Z,50.66
2018-04-26T23:57:13.797Z,50.28
2018-04-26T23:59:39.630Z,51.04
